Detall de PIREP

Printer-friendly versionPDF version

[2012/07/28 14:31:00]
Flight IATA:CT1004
Pilot Number:042
Company ICAO:CAT
Aircraft Type:F100/A
PAX:88
Aircraft Registration:PFJ
Departing Airport: LERS
Destination Airport: LEJR
Alternate Airport:LEMG
Online: VATSIM
Route:EBROX UM985 YES UN747 BLN UL27 MAR
Flight Level:F330
No Slew and time accel
No pause
Crash detect
Detect pilot in Cockpit between each 30 and 45 minutes
14:31 Zero fuel Weight: 81827 Lbs, Fuel Weight: 22689 Lbs
14:31 VATSIM:LERS 281400Z 19008KT 140V240 9999 SCT025CB 27/18 Q1012
14:31 VATSIM:LEJR 281400Z 26009KT 240V300 CAVOK 27/14 Q1015
14:31 VOICE CATALONIAN/SUMMER CHARTER
14:46 Parking Brakes off
14:54 Take-off
14:54 Take off Weight: 103859 Lbs
14:54 Wind: 195º @ 008 Knots Heading: 247º
14:54 POS N41º 08´ 45´´ E001º 09´ 44´´
14:54 Gear Up: 160 Knots
14:54 Flaps:2 at 160 Knots
14:54 Flaps:1 at 172 Knots
14:54 Flaps:0 at 183 Knots
15:09 Wind:229º@031 Knots Heading: 226º Ground Speed: 383 Knots Altitude 25528 ft
15:16 TOC
15:16 Fuel Weight: 19277 Lb
15:24 Wind:230º@069 Knots Heading: 232º Ground Speed: 390 Knots Altitude 32972 ft
15:39 Wind:230º@075 Knots Heading: 254º Ground Speed: 382 Knots Altitude 32992 ft
15:45 Gear Down: 269 Knots
15:45 Gear Up: 269 Knots
15:48 TOD
15:48 Fuel Weight: 16992 Lb
15:54 Wind:256º@037 Knots Heading: 226º Ground Speed: 340 Knots Altitude 22473 ft
16:09 Wind:292º@004 Knots Heading: 251º Ground Speed: 256 Knots Altitude 5013 ft
16:14 Flaps:1 at 215 Knots
16:14 Flaps:2 at 209 Knots
16:17 Flaps:3 at 168 Knots
16:17 Gear Down: 167 Knots
16:17 Flaps:4 at 148 Knots
16:20 TouchDown:Rate -249 ft/min Speed: 107 Knots
16:21 Flaps:3 at 77 Knots
16:21 Flaps:1 at 74 Knots
16:21 VATSIM:LEJR 281600Z 26008KT 230V300 CAVOK 27/14 Q1014
16:21 Land
16:21 Wind:236º@010 Knots
16:21 Heading: 202º
16:21 Flight Duration: 01:27
16:21 Landing Weight: 97301 Lbs
16:21 POS N36º 44´ 41´´ W006º 03´ 36´´
16:22 Parking brakes on
16:22 Block to Block Duration: 01:36
16:22 Final Fuel: 15407 Lbls
16:22 Spent Fuel: 7281 Lbls
16:22 Flight Length: 382 NM
16:22 TOD Land Length: 146 NM

Exportar CSV

Powered by Drupal - Modified by Danger4k